createdAt,value
2022-09-15T00:00:53.886Z,18.45
2022-09-15T00:01:55.524Z,18.56
2022-09-15T00:02:57.232Z,18.64
2022-09-15T00:03:58.809Z,18.73
2022-09-15T00:05:00.855Z,18.78
2022-09-15T00:06:02.887Z,18.81
2022-09-15T00:07:04.538Z,18.86
2022-09-15T00:08:06.131Z,18.88
2022-09-15T00:09:07.671Z,18.93
2022-09-15T00:10:10.382Z,18.95
2022-09-15T00:11:18.406Z,18.96
2022-09-15T00:12:19.966Z,18.98
2022-09-15T00:13:22.700Z,19.07
2022-09-15T00:14:24.442Z,19.15
2022-09-15T00:15:26.089Z,19.17
2022-09-15T00:16:30.959Z,19.17
2022-09-15T00:17:32.563Z,19.10
2022-09-15T00:18:35.529Z,19.00
2022-09-15T00:19:37.203Z,18.86
2022-09-15T00:20:43.310Z,18.80
2022-09-15T00:21:44.883Z,18.78
2022-09-15T00:22:47.680Z,18.75
2022-09-15T00:23:49.984Z,18.79
2022-09-15T00:24:51.509Z,18.85
2022-09-15T00:25:53.416Z,18.90
2022-09-15T00:26:55.186Z,18.96
2022-09-15T00:27:56.800Z,19.03
2022-09-15T00:29:00.369Z,19.09
2022-09-15T00:30:01.901Z,19.14
2022-09-15T00:31:09.756Z,19.18
2022-09-15T00:32:11.343Z,19.21
2022-09-15T00:33:14.602Z,19.22
2022-09-15T00:34:16.333Z,19.26
2022-09-15T00:35:17.859Z,19.30
2022-09-15T00:36:20.857Z,19.30
2022-09-15T00:37:22.550Z,19.28
2022-09-15T00:38:24.038Z,19.27
2022-09-15T00:39:25.638Z,19.27
2022-09-15T00:40:27.549Z,19.21
2022-09-15T00:41:29.626Z,19.14
2022-09-15T00:42:31.181Z,19.04
2022-09-15T00:43:53.861Z,18.94
2022-09-15T00:44:58.566Z,18.83
2022-09-15T00:46:00.186Z,18.73
2022-09-15T00:47:18.869Z,18.65
2022-09-15T00:48:22.913Z,18.53
2022-09-15T00:49:31.740Z,18.38
2022-09-15T00:50:34.459Z,18.26
2022-09-15T00:51:42.628Z,18.08
2022-09-15T00:52:52.184Z,17.98
2022-09-15T00:53:54.158Z,17.94
2022-09-15T00:55:05.227Z,17.80
2022-09-15T00:56:09.546Z,17.57
2022-09-15T00:57:19.784Z,17.38
2022-09-15T00:58:25.535Z,17.41
2022-09-15T00:59:31.918Z,17.37
2022-09-15T01:00:35.251Z,17.24
2022-09-15T01:01:36.854Z,17.12
2022-09-15T01:02:40.049Z,17.05
2022-09-15T01:03:42.398Z,17.00
2022-09-15T01:04:44.268Z,16.96
2022-09-15T01:05:51.418Z,16.98
2022-09-15T01:06:58.440Z,16.95
2022-09-15T01:08:07.067Z,16.89
2022-09-15T01:09:26.950Z,16.90
2022-09-15T01:10:34.899Z,16.84
2022-09-15T01:11:36.657Z,16.87
2022-09-15T01:12:40.460Z,16.88
2022-09-15T01:13:42.044Z,16.96
2022-09-15T01:14:43.545Z,17.08
2022-09-15T01:15:47.855Z,17.18
2022-09-15T01:17:07.148Z,17.25
2022-09-15T01:18:58.557Z,17.31
2022-09-15T01:20:33.795Z,17.37
2022-09-15T01:21:49.892Z,17.41
2022-09-15T01:23:32.947Z,17.40
2022-09-15T01:25:11.690Z,17.30
2022-09-15T01:26:35.280Z,17.31
2022-09-15T01:27:58.176Z,17.46
2022-09-15T01:29:44.175Z,17.58
2022-09-15T01:31:29.120Z,17.69
2022-09-15T01:33:04.148Z,17.70
2022-09-15T01:34:17.551Z,17.54
2022-09-15T01:35:57.597Z,17.52
2022-09-15T01:37:14.790Z,17.44
2022-09-15T01:38:33.151Z,17.36
2022-09-15T01:39:40.084Z,17.46
2022-09-15T01:40:55.629Z,17.57
2022-09-15T01:42:00.853Z,17.67
2022-09-15T01:43:05.006Z,17.71
2022-09-15T01:44:14.684Z,17.74
2022-09-15T01:45:29.296Z,17.75
2022-09-15T01:46:37.117Z,17.72
2022-09-15T01:47:39.970Z,17.63
2022-09-15T01:48:42.799Z,17.61
2022-09-15T01:49:52.774Z,17.62
2022-09-15T01:50:57.622Z,17.65
2022-09-15T01:51:59.274Z,17.69
2022-09-15T01:53:08.142Z,17.74
2022-09-15T01:54:11.161Z,17.82
2022-09-15T01:55:27.001Z,17.89
2022-09-15T01:56:28.793Z,17.89
2022-09-15T01:57:30.498Z,17.87
2022-09-15T01:58:33.352Z,17.87
2022-09-15T01:59:34.885Z,17.92
2022-09-15T02:00:41.627Z,17.93
2022-09-15T02:01:51.870Z,17.92
2022-09-15T02:03:00.585Z,17.96
2022-09-15T02:04:15.789Z,18.01
2022-09-15T02:05:30.186Z,18.02
2022-09-15T02:06:39.779Z,18.03
2022-09-15T02:07:49.385Z,17.99
2022-09-15T02:08:57.507Z,17.81
2022-09-15T02:10:11.472Z,17.76
2022-09-15T02:11:28.070Z,17.58
2022-09-15T02:13:01.688Z,17.32
2022-09-15T02:14:36.310Z,17.21
2022-09-15T02:15:48.424Z,16.94
2022-09-15T02:16:54.174Z,16.85
2022-09-15T02:17:58.059Z,16.95
2022-09-15T02:19:04.438Z,16.94
2022-09-15T02:20:35.224Z,17.07
2022-09-15T02:21:59.227Z,17.22
2022-09-15T02:23:08.485Z,17.28
2022-09-15T02:24:19.124Z,17.28
2022-09-15T02:25:28.873Z,17.25
2022-09-15T02:26:33.405Z,17.23
2022-09-15T02:27:44.208Z,17.19
2022-09-15T02:28:48.954Z,17.11
2022-09-15T02:29:54.258Z,17.03
2022-09-15T02:30:58.800Z,16.97
2022-09-15T02:32:07.070Z,16.95
2022-09-15T02:33:14.328Z,16.98
2022-09-15T02:34:30.389Z,17.09
2022-09-15T02:35:36.116Z,17.12
2022-09-15T02:36:39.251Z,17.17
2022-09-15T02:37:41.237Z,17.20
2022-09-15T02:38:47.257Z,17.22
2022-09-15T02:39:58.011Z,17.27
2022-09-15T02:41:00.014Z,17.21
2022-09-15T02:42:02.580Z,17.26
2022-09-15T02:43:05.488Z,17.33
2022-09-15T02:44:09.423Z,17.37
2022-09-15T02:45:11.091Z,17.44
2022-09-15T02:46:14.036Z,17.49
2022-09-15T02:47:15.597Z,17.53
2022-09-15T02:48:17.681Z,17.42
2022-09-15T02:49:20.167Z,17.30
2022-09-15T02:50:21.742Z,17.23
2022-09-15T02:51:23.525Z,17.22
2022-09-15T02:52:26.203Z,17.22
2022-09-15T02:53:27.769Z,17.21
2022-09-15T02:54:29.359Z,17.22
2022-09-15T02:55:30.967Z,17.26
2022-09-15T02:56:32.495Z,17.29
2022-09-15T02:57:34.035Z,17.33
2022-09-15T02:58:35.890Z,17.36
2022-09-15T02:59:56.359Z,17.39
2022-09-15T03:00:58.140Z,17.42
2022-09-15T03:02:00.349Z,17.48
2022-09-15T03:03:01.940Z,17.52
2022-09-15T03:04:04.397Z,17.53
2022-09-15T03:05:07.719Z,17.55
2022-09-15T03:06:18.469Z,17.55
2022-09-15T03:07:20.259Z,17.52
2022-09-15T03:08:21.819Z,17.59
2022-09-15T03:09:23.341Z,17.61
2022-09-15T03:10:26.472Z,17.57
2022-09-15T03:11:29.747Z,17.53
2022-09-15T03:12:31.460Z,17.48
2022-09-15T03:13:33.723Z,17.48
2022-09-15T03:14:35.535Z,17.49
2022-09-15T03:15:37.104Z,17.52
2022-09-15T03:16:38.654Z,17.53
2022-09-15T03:17:42.920Z,17.55
2022-09-15T03:18:44.415Z,17.55
2022-09-15T03:19:46.283Z,17.53
2022-09-15T03:20:48.151Z,17.42
2022-09-15T03:21:49.668Z,17.22
2022-09-15T03:22:51.382Z,16.94
2022-09-15T03:23:53.010Z,16.84
2022-09-15T03:24:54.506Z,16.81
2022-09-15T03:25:56.487Z,16.90
2022-09-15T03:26:58.378Z,16.99
2022-09-15T03:27:59.871Z,17.08
2022-09-15T03:29:01.412Z,17.18
2022-09-15T03:30:04.332Z,17.22
2022-09-15T03:31:07.696Z,17.26
2022-09-15T03:32:09.247Z,17.29
2022-09-15T03:33:10.759Z,17.32
2022-09-15T03:34:12.293Z,17.34
2022-09-15T03:35:13.867Z,17.36
2022-09-15T03:36:15.860Z,17.41
2022-09-15T03:37:17.471Z,17.45
2022-09-15T03:38:19.707Z,17.49
2022-09-15T03:39:21.367Z,17.54
2022-09-15T03:40:22.912Z,17.47
2022-09-15T03:41:25.831Z,17.49
2022-09-15T03:42:27.370Z,17.49
2022-09-15T03:43:30.548Z,17.50
2022-09-15T03:44:32.244Z,17.44
2022-09-15T03:45:33.833Z,17.43
2022-09-15T03:46:35.701Z,17.48
2022-09-15T03:47:37.230Z,17.46
2022-09-15T03:48:40.572Z,17.34
2022-09-15T03:49:42.129Z,17.14
2022-09-15T03:50:43.753Z,17.13
2022-09-15T03:51:45.291Z,17.20
2022-09-15T03:52:46.841Z,17.25
2022-09-15T03:53:48.397Z,17.23
2022-09-15T03:54:50.147Z,17.21
2022-09-15T03:55:52.252Z,17.19
2022-09-15T03:56:53.802Z,17.14
2022-09-15T03:57:55.896Z,17.10
2022-09-15T03:58:59.069Z,17.12
2022-09-15T04:00:01.283Z,17.16
2022-09-15T04:01:03.038Z,17.20
2022-09-15T04:02:04.748Z,17.13
2022-09-15T04:03:06.866Z,17.04
2022-09-15T04:04:08.439Z,16.94
2022-09-15T04:05:10.486Z,16.84
2022-09-15T04:06:12.327Z,16.69
2022-09-15T04:07:13.851Z,16.56
2022-09-15T04:08:15.387Z,16.40
2022-09-15T04:09:16.896Z,16.28
2022-09-15T04:10:18.645Z,16.18
2022-09-15T04:11:22.774Z,16.14
2022-09-15T04:12:24.470Z,16.09
2022-09-15T04:13:28.695Z,16.05
2022-09-15T04:14:30.547Z,16.04
2022-09-15T04:15:32.075Z,16.09
2022-09-15T04:16:34.192Z,16.13
2022-09-15T04:17:36.373Z,16.22
2022-09-15T04:18:38.269Z,16.22
2022-09-15T04:19:40.355Z,16.29
2022-09-15T04:20:41.899Z,16.30
2022-09-15T04:21:43.555Z,16.25
2022-09-15T04:22:45.154Z,16.25
2022-09-15T04:23:47.740Z,16.32
2022-09-15T04:24:49.710Z,16.37
2022-09-15T04:26:00.238Z,16.42
2022-09-15T04:27:01.881Z,16.47
2022-09-15T04:28:03.466Z,16.49
2022-09-15T04:29:13.365Z,16.42
2022-09-15T04:30:15.036Z,16.16
2022-09-15T04:31:17.795Z,16.06
2022-09-15T04:32:20.586Z,16.07
2022-09-15T04:33:22.479Z,16.02
2022-09-15T04:34:24.653Z,16.00
2022-09-15T04:35:26.281Z,15.97
2022-09-15T04:36:29.002Z,15.98
2022-09-15T04:37:31.333Z,15.99
2022-09-15T04:38:33.592Z,15.98
2022-09-15T04:39:35.136Z,16.05
2022-09-15T04:40:36.907Z,16.00
2022-09-15T04:41:38.403Z,15.98
2022-09-15T04:42:40.054Z,15.98
2022-09-15T04:43:43.392Z,16.02
2022-09-15T04:44:44.901Z,16.05
2022-09-15T04:45:46.422Z,16.07
2022-09-15T04:46:48.819Z,16.09
2022-09-15T04:47:51.643Z,16.11
2022-09-15T04:48:54.026Z,16.08
2022-09-15T04:49:55.619Z,16.08
2022-09-15T04:51:18.958Z,16.03
2022-09-15T04:52:20.549Z,15.99
2022-09-15T04:53:22.186Z,15.98
2022-09-15T04:54:23.821Z,16.16
2022-09-15T04:55:26.739Z,16.28
2022-09-15T04:56:28.283Z,16.39
2022-09-15T04:57:29.871Z,16.57
2022-09-15T04:58:31.827Z,16.66
2022-09-15T04:59:33.628Z,16.71
2022-09-15T05:00:43.038Z,16.79
2022-09-15T05:01:45.290Z,16.86
2022-09-15T05:02:46.813Z,16.99
2022-09-15T05:03:48.861Z,17.10
2022-09-15T05:04:51.670Z,17.17
2022-09-15T05:05:53.168Z,17.28
2022-09-15T05:06:54.698Z,17.36
2022-09-15T05:07:56.236Z,17.38
2022-09-15T05:08:58.654Z,17.41
2022-09-15T05:10:00.198Z,17.54
2022-09-15T05:11:04.477Z,17.71
2022-09-15T05:12:06.384Z,17.74
2022-09-15T05:13:07.885Z,17.70
2022-09-15T05:14:10.770Z,17.51
2022-09-15T05:15:12.478Z,17.34
2022-09-15T05:16:17.464Z,17.32
2022-09-15T05:17:19.018Z,17.42
2022-09-15T05:18:20.709Z,17.43
2022-09-15T05:19:22.300Z,17.40
2022-09-15T05:20:24.140Z,17.48
2022-09-15T05:21:26.838Z,17.54
2022-09-15T05:22:28.509Z,17.45
2022-09-15T05:23:30.200Z,17.42
2022-09-15T05:24:31.802Z,17.49
2022-09-15T05:25:33.319Z,17.58
2022-09-15T05:26:34.945Z,17.33
2022-09-15T05:27:36.610Z,17.22
2022-09-15T05:28:38.675Z,17.14
2022-09-15T05:29:40.166Z,17.16
2022-09-15T05:30:44.372Z,17.31
2022-09-15T05:31:46.282Z,17.38
2022-09-15T05:32:47.919Z,17.51
2022-09-15T05:33:50.764Z,17.71
2022-09-15T05:34:52.306Z,17.87
2022-09-15T05:35:55.318Z,18.09
2022-09-15T05:36:57.176Z,18.32
2022-09-15T05:37:58.795Z,18.53
2022-09-15T05:39:01.799Z,18.63
2022-09-15T05:40:08.227Z,18.67
2022-09-15T05:41:12.332Z,18.55
2022-09-15T05:42:13.847Z,18.25
2022-09-15T05:43:15.959Z,18.26
2022-09-15T05:44:17.629Z,18.36
2022-09-15T05:45:19.172Z,18.40
2022-09-15T05:46:20.903Z,18.53
2022-09-15T05:47:22.813Z,18.67
2022-09-15T05:48:24.611Z,18.61
2022-09-15T05:49:26.275Z,18.55
2022-09-15T05:50:27.792Z,18.48
2022-09-15T05:51:30.266Z,18.41
2022-09-15T05:52:31.889Z,18.41
2022-09-15T05:53:35.271Z,18.24
2022-09-15T05:54:36.866Z,18.13
2022-09-15T05:55:38.481Z,18.19
2022-09-15T05:56:40.043Z,18.25
2022-09-15T05:57:41.703Z,18.36
2022-09-15T05:58:45.963Z,18.58
2022-09-15T05:59:47.523Z,18.60
2022-09-15T06:00:49.341Z,18.71
2022-09-15T06:01:51.588Z,18.84
2022-09-15T06:02:53.296Z,18.95
2022-09-15T06:03:56.404Z,18.73
2022-09-15T06:04:58.381Z,18.82
2022-09-15T06:06:01.625Z,19.05
2022-09-15T06:07:03.195Z,19.36
2022-09-15T06:08:04.800Z,19.53
2022-09-15T06:09:06.615Z,19.49
2022-09-15T06:10:09.314Z,19.22
2022-09-15T06:11:15.667Z,18.97
2022-09-15T06:12:18.411Z,18.89
2022-09-15T06:13:20.081Z,18.99
2022-09-15T06:14:21.617Z,19.17
2022-09-15T06:15:23.856Z,19.40
2022-09-15T06:16:25.508Z,19.73
2022-09-15T06:17:27.285Z,19.97
2022-09-15T06:18:28.840Z,20.22
2022-09-15T06:19:30.462Z,20.40
2022-09-15T06:20:32.027Z,20.49
2022-09-15T06:21:34.231Z,20.61
2022-09-15T06:22:35.770Z,20.77
2022-09-15T06:23:38.134Z,20.95
2022-09-15T06:24:39.662Z,21.09
2022-09-15T06:25:41.165Z,21.20
2022-09-15T06:26:42.726Z,21.32
2022-09-15T06:27:44.314Z,21.45
2022-09-15T06:28:58.378Z,21.57
2022-09-15T06:29:59.923Z,21.77
2022-09-15T06:31:01.526Z,21.87
2022-09-15T06:32:03.085Z,22.03
2022-09-15T06:33:04.686Z,22.08
2022-09-15T06:34:06.710Z,21.93
2022-09-15T06:35:08.807Z,21.71
2022-09-15T06:36:12.372Z,21.83
2022-09-15T06:37:14.351Z,21.98
2022-09-15T06:38:15.883Z,22.05
2022-09-15T06:39:17.380Z,22.09
2022-09-15T06:40:19.114Z,22.07
2022-09-15T06:41:21.326Z,22.03
2022-09-15T06:42:22.840Z,21.77
2022-09-15T06:43:25.153Z,21.56
2022-09-15T06:44:26.661Z,21.30
2022-09-15T06:45:29.839Z,21.50
2022-09-15T06:46:31.517Z,21.57
2022-09-15T06:47:34.171Z,21.55
2022-09-15T06:48:37.075Z,21.62
2022-09-15T06:49:38.622Z,21.36
2022-09-15T06:50:40.173Z,21.17
2022-09-15T06:51:42.090Z,21.11
2022-09-15T06:52:43.659Z,20.99
2022-09-15T06:53:45.728Z,20.77
2022-09-15T06:54:47.279Z,20.76
2022-09-15T06:55:48.870Z,20.89
2022-09-15T06:56:50.505Z,20.87
2022-09-15T06:57:52.015Z,20.90
2022-09-15T06:58:53.994Z,21.07
2022-09-15T06:59:55.730Z,21.18
2022-09-15T07:01:06.057Z,21.25
2022-09-15T07:02:09.613Z,21.47
2022-09-15T07:03:11.451Z,21.67
2022-09-15T07:04:13.062Z,21.89
2022-09-15T07:05:14.622Z,21.92
2022-09-15T07:06:16.286Z,22.16
2022-09-15T07:07:17.976Z,22.44
2022-09-15T07:08:19.554Z,22.71
2022-09-15T07:09:21.095Z,22.95
2022-09-15T07:10:22.643Z,23.02
2022-09-15T07:11:25.164Z,23.11
2022-09-15T07:12:26.753Z,23.25
2022-09-15T07:13:28.301Z,23.48
2022-09-15T07:14:30.086Z,23.70
2022-09-15T07:15:32.029Z,23.71
2022-09-15T07:16:33.801Z,23.68
2022-09-15T07:17:37.363Z,23.89
2022-09-15T07:18:43.077Z,23.96
2022-09-15T07:19:45.943Z,24.16
2022-09-15T07:20:47.592Z,24.29
2022-09-15T07:21:50.359Z,24.46
2022-09-15T07:22:51.872Z,24.66
2022-09-15T07:23:57.376Z,24.76
2022-09-15T07:24:58.892Z,24.94
2022-09-15T07:26:07.425Z,25.10
2022-09-15T07:27:09.595Z,25.07
2022-09-15T07:28:12.486Z,24.73
2022-09-15T07:29:14.022Z,24.24
2022-09-15T07:30:15.814Z,23.89
2022-09-15T07:31:20.565Z,23.71
2022-09-15T07:32:22.115Z,23.56
2022-09-15T07:33:23.762Z,23.51
2022-09-15T07:34:25.432Z,23.61
2022-09-15T07:35:27.105Z,23.74
2022-09-15T07:36:29.603Z,24.00
2022-09-15T07:37:32.439Z,24.19
2022-09-15T07:38:35.470Z,24.27
2022-09-15T07:39:37.026Z,24.22
2022-09-15T07:40:38.910Z,24.32
2022-09-15T07:41:40.532Z,24.30
2022-09-15T07:42:43.649Z,24.24
2022-09-15T07:43:47.640Z,24.09
2022-09-15T07:44:49.186Z,24.16
2022-09-15T07:45:51.244Z,24.24
2022-09-15T07:46:52.847Z,24.44
2022-09-15T07:47:54.747Z,24.57
2022-09-15T07:48:56.574Z,24.79
2022-09-15T07:49:58.300Z,25.09
2022-09-15T07:51:00.069Z,25.28
2022-09-15T07:52:02.420Z,25.41
2022-09-15T07:53:04.284Z,25.53
2022-09-15T07:54:05.861Z,25.62
2022-09-15T07:55:08.201Z,25.61
2022-09-15T07:56:10.080Z,25.55
2022-09-15T07:57:11.632Z,25.53
2022-09-15T07:58:13.252Z,25.38
2022-09-15T07:59:14.872Z,25.56
2022-09-15T08:00:17.506Z,25.58
2022-09-15T08:01:20.302Z,25.63
2022-09-15T08:02:22.259Z,25.71
2022-09-15T08:03:23.920Z,25.81
2022-09-15T08:04:25.424Z,25.77
2022-09-15T08:05:28.509Z,25.58
2022-09-15T08:06:30.080Z,25.55
2022-09-15T08:07:31.701Z,25.78
2022-09-15T08:08:33.206Z,26.02
2022-09-15T08:09:34.692Z,26.24
2022-09-15T08:10:39.958Z,26.37
2022-09-15T08:11:44.331Z,26.58
2022-09-15T08:12:45.890Z,26.65
2022-09-15T08:13:49.767Z,26.60
2022-09-15T08:14:51.290Z,26.56
2022-09-15T08:15:52.900Z,26.55
2022-09-15T08:16:54.540Z,26.49
2022-09-15T08:17:56.036Z,26.58
2022-09-15T08:18:57.746Z,26.82
2022-09-15T08:19:59.268Z,26.96
2022-09-15T08:21:05.280Z,27.03
2022-09-15T08:22:06.957Z,27.22
2022-09-15T08:23:09.608Z,27.24
2022-09-15T08:24:11.122Z,27.32
2022-09-15T08:25:12.988Z,27.42
2022-09-15T08:26:14.741Z,27.39
2022-09-15T08:27:16.291Z,27.35
2022-09-15T08:28:17.908Z,27.12
2022-09-15T08:29:19.666Z,27.11
2022-09-15T08:30:21.903Z,27.15
2022-09-15T08:31:24.581Z,27.11
2022-09-15T08:32:26.242Z,26.89
2022-09-15T08:33:28.820Z,26.80
2022-09-15T08:34:31.039Z,26.91
2022-09-15T08:35:33.912Z,26.90
2022-09-15T08:36:35.602Z,27.01
2022-09-15T08:37:37.176Z,27.23
2022-09-15T08:38:44.285Z,27.38
2022-09-15T08:39:46.678Z,27.40
2022-09-15T08:40:48.827Z,27.25
2022-09-15T08:41:53.420Z,27.24
2022-09-15T08:43:00.002Z,27.22
2022-09-15T08:44:21.613Z,27.18
2022-09-15T08:45:29.341Z,27.04
2022-09-15T08:46:41.214Z,26.89
2022-09-15T08:47:47.931Z,26.95
2022-09-15T08:49:02.793Z,27.02
2022-09-15T08:50:14.926Z,27.10
2022-09-15T08:51:26.208Z,26.96
2022-09-15T08:52:46.258Z,26.84
2022-09-15T08:53:53.489Z,27.06
2022-09-15T08:54:58.531Z,27.22
2022-09-15T08:56:09.327Z,27.42
2022-09-15T08:57:18.786Z,27.60
2022-09-15T08:58:24.155Z,27.77
2022-09-15T08:59:34.258Z,27.92
2022-09-15T09:00:35.789Z,27.89
2022-09-15T09:02:23.447Z,27.68
2022-09-15T09:04:06.850Z,27.64
2022-09-15T09:05:37.015Z,27.39
2022-09-15T09:06:44.873Z,27.52
2022-09-15T09:08:14.185Z,27.40
2022-09-15T09:09:25.905Z,27.01
2022-09-15T09:10:53.551Z,26.83
2022-09-15T09:12:19.707Z,26.99
2022-09-15T09:13:46.622Z,27.25
2022-09-15T09:15:11.711Z,27.46
2022-09-15T09:16:41.944Z,27.65
2022-09-15T09:18:04.802Z,27.82
2022-09-15T09:19:16.255Z,27.82
2022-09-15T09:20:27.538Z,27.93
2022-09-15T09:21:29.604Z,28.09
2022-09-15T09:22:36.629Z,28.30
2022-09-15T09:23:54.378Z,28.34
2022-09-15T09:24:58.205Z,28.27
2022-09-15T09:26:02.136Z,28.25
2022-09-15T09:27:04.677Z,28.32
2022-09-15T09:28:13.840Z,28.40
2022-09-15T09:29:18.788Z,28.60
2022-09-15T09:30:23.294Z,28.62
2022-09-15T09:31:27.433Z,28.70
2022-09-15T09:32:49.546Z,28.77
2022-09-15T09:33:57.996Z,28.78
2022-09-15T09:35:05.283Z,28.79
2022-09-15T09:36:11.013Z,28.83
2022-09-15T09:37:15.729Z,28.80
2022-09-15T09:38:30.512Z,28.74
2022-09-15T09:39:32.149Z,28.78
2022-09-15T09:40:34.160Z,28.87
2022-09-15T09:41:36.400Z,28.87
2022-09-15T09:42:39.241Z,28.97
2022-09-15T09:43:43.183Z,29.05
2022-09-15T09:44:46.756Z,29.10
2022-09-15T09:45:48.501Z,29.09
2022-09-15T09:46:50.086Z,29.19
2022-09-15T09:47:52.872Z,29.27
2022-09-15T09:49:31.234Z,29.26
2022-09-15T09:50:38.857Z,29.35
2022-09-15T09:52:03.464Z,29.41
2022-09-15T09:53:27.583Z,29.43
2022-09-15T09:54:32.326Z,29.48
2022-09-15T09:55:33.871Z,29.56
2022-09-15T09:56:35.497Z,29.59
2022-09-15T09:57:40.498Z,29.57
2022-09-15T09:58:42.938Z,29.61
2022-09-15T09:59:50.265Z,29.59
2022-09-15T10:00:53.022Z,29.66
2022-09-15T10:02:13.114Z,29.77
2022-09-15T10:03:22.732Z,29.71
2022-09-15T10:04:24.314Z,29.72
2022-09-15T10:05:26.000Z,29.75
2022-09-15T10:06:30.649Z,29.81
2022-09-15T10:07:34.224Z,29.90
2022-09-15T10:08:37.000Z,29.91
2022-09-15T10:09:39.074Z,29.94
2022-09-15T10:10:50.443Z,29.95
2022-09-15T10:11:55.137Z,29.84
2022-09-15T10:12:57.509Z,29.85
2022-09-15T10:13:59.114Z,29.79
2022-09-15T10:15:04.569Z,29.75
2022-09-15T10:16:06.937Z,29.84
2022-09-15T10:17:14.908Z,29.88
2022-09-15T10:18:30.795Z,29.89
2022-09-15T10:19:36.660Z,29.92
2022-09-15T10:20:50.175Z,29.82
2022-09-15T10:21:51.835Z,29.83
2022-09-15T10:23:03.053Z,29.92
2022-09-15T10:24:24.141Z,29.98
2022-09-15T10:25:39.744Z,29.98
2022-09-15T10:26:50.955Z,29.85
2022-09-15T10:28:08.889Z,29.64
2022-09-15T10:29:13.288Z,29.63
2022-09-15T10:30:14.859Z,29.60
2022-09-15T10:31:31.910Z,29.52
2022-09-15T10:32:33.513Z,29.61
2022-09-15T10:33:37.291Z,29.75
2022-09-15T10:34:38.854Z,29.93
2022-09-15T10:35:42.637Z,30.01
2022-09-15T10:36:44.386Z,30.08
2022-09-15T10:38:11.917Z,30.17
2022-09-15T10:39:31.448Z,30.07
2022-09-15T10:40:48.127Z,30.06
2022-09-15T10:42:02.734Z,29.99
2022-09-15T10:43:22.829Z,30.05
2022-09-15T10:44:59.105Z,30.24
2022-09-15T10:46:09.895Z,30.30
2022-09-15T10:47:21.796Z,30.46
2022-09-15T10:48:45.227Z,30.36
2022-09-15T10:50:16.441Z,30.37
2022-09-15T10:51:54.963Z,30.22
2022-09-15T10:53:21.326Z,30.36
2022-09-15T10:55:00.181Z,30.52
2022-09-15T10:56:27.453Z,30.43
2022-09-15T10:57:47.435Z,30.40
2022-09-15T10:59:16.639Z,30.70
2022-09-15T11:00:24.133Z,30.91
2022-09-15T11:01:28.622Z,31.07
2022-09-15T11:02:44.107Z,31.20
2022-09-15T11:04:13.428Z,31.30
2022-09-15T11:05:23.003Z,31.28
2022-09-15T11:06:40.062Z,31.24
2022-09-15T11:08:19.249Z,31.05
2022-09-15T11:09:33.403Z,30.98
2022-09-15T11:11:08.813Z,31.02
2022-09-15T11:12:51.628Z,31.20
2022-09-15T11:14:08.505Z,31.38
2022-09-15T11:15:46.647Z,31.52
2022-09-15T11:17:06.774Z,31.43
2022-09-15T11:18:29.681Z,31.38
2022-09-15T11:19:31.184Z,31.33
2022-09-15T11:21:01.182Z,31.38
2022-09-15T11:22:16.991Z,31.43
2022-09-15T11:23:32.732Z,31.52
2022-09-15T11:24:59.156Z,31.56
2022-09-15T11:26:17.119Z,31.59
2022-09-15T11:27:25.450Z,31.64
2022-09-15T11:28:34.073Z,31.60
2022-09-15T11:29:48.030Z,31.65
2022-09-15T11:31:21.208Z,31.62
2022-09-15T11:32:55.783Z,31.57
2022-09-15T11:34:19.731Z,31.57
2022-09-15T11:35:39.197Z,31.45
2022-09-15T11:37:05.123Z,31.49
2022-09-15T11:38:30.934Z,31.48
2022-09-15T11:39:46.315Z,31.45
2022-09-15T11:40:56.618Z,31.53
2022-09-15T11:42:15.625Z,31.62
2022-09-15T11:43:33.012Z,31.78
2022-09-15T11:44:40.028Z,31.88
2022-09-15T11:45:48.809Z,31.97
2022-09-15T11:47:05.365Z,31.99
2022-09-15T11:48:45.436Z,31.93
2022-09-15T11:50:42.813Z,31.92
2022-09-15T11:51:54.618Z,31.92
2022-09-15T11:53:09.762Z,31.96
2022-09-15T11:54:17.793Z,31.96
2022-09-15T11:55:25.269Z,32.03
2022-09-15T11:56:33.568Z,32.12
2022-09-15T11:57:43.705Z,32.13
2022-09-15T11:59:03.852Z,32.07
2022-09-15T12:00:14.731Z,32.10
2022-09-15T12:01:20.231Z,32.21
2022-09-15T12:02:51.647Z,32.31
2022-09-15T12:04:04.182Z,32.37
2022-09-15T12:05:46.203Z,32.40
2022-09-15T12:08:41.008Z,32.47
2022-09-15T12:09:42.857Z,32.50
2022-09-15T12:10:49.026Z,32.52
2022-09-15T12:11:58.419Z,32.58
2022-09-15T12:13:01.191Z,32.65
2022-09-15T12:14:06.283Z,32.71
2022-09-15T12:15:15.021Z,32.66
2022-09-15T12:16:17.450Z,32.66
2022-09-15T12:17:39.035Z,32.61
2022-09-15T12:19:14.594Z,32.53
2022-09-15T12:20:23.666Z,32.50
2022-09-15T12:21:33.997Z,32.40
2022-09-15T12:22:55.827Z,32.34
2022-09-15T12:24:00.021Z,32.31
2022-09-15T12:25:03.685Z,32.33
2022-09-15T12:26:15.545Z,32.37
2022-09-15T12:27:19.568Z,32.19
2022-09-15T12:28:27.608Z,32.17
2022-09-15T12:29:41.183Z,32.04
2022-09-15T12:30:43.882Z,32.04
2022-09-15T12:31:45.871Z,32.12
2022-09-15T12:32:48.598Z,32.09
2022-09-15T12:33:57.613Z,31.94
2022-09-15T12:35:17.690Z,31.94
2022-09-15T12:36:34.603Z,31.99
2022-09-15T12:37:52.407Z,32.09
2022-09-15T12:38:54.077Z,32.13
2022-09-15T12:39:56.046Z,32.19
2022-09-15T12:40:59.622Z,32.23
2022-09-15T12:42:01.065Z,32.25
2022-09-15T12:43:16.338Z,32.29
2022-09-15T12:44:34.948Z,32.23
2022-09-15T12:45:37.133Z,32.22
2022-09-15T12:46:39.426Z,32.28
2022-09-15T12:48:10.137Z,32.35
2022-09-15T12:49:17.997Z,32.47
2022-09-15T12:50:19.493Z,32.55
2022-09-15T12:51:26.330Z,32.51
2022-09-15T12:52:29.288Z,32.43
2022-09-15T12:53:46.473Z,32.36
2022-09-15T12:54:55.823Z,32.32
2022-09-15T12:56:25.108Z,32.31
2022-09-15T12:57:32.460Z,32.21
2022-09-15T12:58:42.052Z,32.18
2022-09-15T12:59:43.593Z,32.25
2022-09-15T13:01:13.887Z,32.23
2022-09-15T13:02:44.626Z,32.12
2022-09-15T13:03:46.367Z,32.09
2022-09-15T13:04:55.204Z,32.04
2022-09-15T13:06:24.235Z,32.16
2022-09-15T13:07:35.144Z,32.20
2022-09-15T13:08:36.583Z,32.25
2022-09-15T13:10:02.319Z,32.27
2022-09-15T13:11:06.800Z,32.19
2022-09-15T13:12:09.707Z,32.17
2022-09-15T13:13:30.010Z,32.20
2022-09-15T13:14:42.022Z,32.24
2022-09-15T13:15:46.606Z,32.28
2022-09-15T13:16:54.176Z,32.28
2022-09-15T13:17:56.782Z,32.30
2022-09-15T13:19:05.361Z,32.34
2022-09-15T13:20:18.035Z,32.26
2022-09-15T13:21:22.944Z,32.33
2022-09-15T13:22:43.372Z,32.33
2022-09-15T13:23:50.221Z,32.33
2022-09-15T13:25:02.062Z,32.37
2022-09-15T13:26:06.878Z,32.33
2022-09-15T13:27:09.237Z,32.37
2022-09-15T13:28:13.737Z,32.33
2022-09-15T13:29:16.839Z,32.29
2022-09-15T13:30:24.224Z,32.17
2022-09-15T13:31:43.741Z,32.13
2022-09-15T13:33:03.966Z,32.11
2022-09-15T13:38:16.782Z,32.51
2022-09-15T13:40:00.890Z,32.55
2022-09-15T13:41:08.434Z,32.56
2022-09-15T13:42:47.892Z,32.47
2022-09-15T13:43:52.493Z,32.48
2022-09-15T13:45:12.549Z,32.52
2022-09-15T13:46:41.950Z,32.47
2022-09-15T13:47:59.468Z,32.63
2022-09-15T13:49:18.725Z,32.72
2022-09-15T13:50:36.863Z,32.75
2022-09-15T13:51:41.849Z,32.78
2022-09-15T13:52:46.383Z,32.79
2022-09-15T13:53:53.913Z,32.56
2022-09-15T13:55:26.205Z,32.41
2022-09-15T13:56:29.031Z,32.45
2022-09-15T13:58:55.194Z,32.44
2022-09-15T13:59:58.731Z,32.47
2022-09-15T14:01:06.952Z,32.41
2022-09-15T14:02:09.210Z,32.36
2022-09-15T14:03:16.280Z,32.34
2022-09-15T14:04:24.351Z,32.34
2022-09-15T14:05:31.161Z,32.32
2022-09-15T14:06:33.540Z,32.37
2022-09-15T14:07:35.171Z,32.44
2022-09-15T14:08:38.202Z,32.44
2022-09-15T14:09:47.601Z,32.43
2022-09-15T14:10:55.017Z,32.35
2022-09-15T14:12:03.881Z,32.30
2022-09-15T14:13:05.650Z,32.26
2022-09-15T14:14:29.473Z,32.34
2022-09-15T14:15:31.087Z,32.37
2022-09-15T14:16:39.784Z,32.43
2022-09-15T14:17:45.605Z,32.45
2022-09-15T14:18:47.246Z,32.48
2022-09-15T14:19:51.263Z,32.45
2022-09-15T14:21:05.040Z,32.55
2022-09-15T14:22:29.642Z,32.44
2022-09-15T14:23:32.663Z,32.44
2022-09-15T14:24:40.244Z,32.35
2022-09-15T14:25:45.676Z,32.28
2022-09-15T14:26:48.564Z,32.22
2022-09-15T14:27:52.488Z,32.20
2022-09-15T14:28:59.285Z,32.19
2022-09-15T14:30:10.972Z,32.16
2022-09-15T14:31:12.517Z,32.21
2022-09-15T14:32:16.576Z,32.24
2022-09-15T14:33:18.363Z,32.29
2022-09-15T14:34:30.387Z,32.35
2022-09-15T14:35:37.353Z,32.37